Time;durP1;ratioP1;P1;durP2;ratioP2;P2;SDS_P1;SDS_P2;PMS_P1;PMS_P2;Temp;Humidity;BMP_temperature;BMP_pressure;BME280_temperature;BME280_humidity;BME280_pressure;Samples;Min_cycle;Max_cycle;Signal;HPM_P1;HPM_P2
2021/09/09 00:01:23;;;;;;;7.22;5.25;;;23.80;60.00;;;;;;5072846;28;20109;-53
2021/09/09 00:03:49;;;;;;;6.90;5.32;;;23.80;59.90;;;;;;5073864;28;20409;-52
2021/09/09 00:06:14;;;;;;;5.88;5.10;;;23.80;59.90;;;;;;5058021;28;20526;-54
2021/09/09 00:08:40;;;;;;;8.38;5.18;;;23.80;59.90;;;;;;5051948;28;20116;-55
2021/09/09 00:11:06;;;;;;;6.38;5.28;;;23.80;59.90;;;;;;5053133;28;20099;-55
2021/09/09 00:13:32;;;;;;;7.82;5.78;;;23.80;59.80;;;;;;5051825;28;20037;-56
2021/09/09 00:15:58;;;;;;;6.70;5.30;;;23.80;59.80;;;;;;5052576;28;20048;-56
2021/09/09 00:18:23;;;;;;;7.57;5.00;;;23.80;59.80;;;;;;5052379;28;20025;-55
2021/09/09 00:20:49;;;;;;;14.80;6.05;;;23.80;59.80;;;;;;5053297;28;20151;-56
2021/09/09 00:23:15;;;;;;;5.78;5.18;;;23.80;59.80;;;;;;5053520;28;20059;-55
2021/09/09 00:25:40;;;;;;;8.00;5.45;;;23.80;59.70;;;;;;5052094;28;20633;-55
2021/09/09 00:28:06;;;;;;;7.75;5.10;;;23.80;59.70;;;;;;5053127;28;20021;-56
2021/09/09 00:30:32;;;;;;;7.20;5.05;;;23.80;59.70;;;;;;5070936;28;20044;-56
2021/09/09 00:32:57;;;;;;;5.97;5.03;;;23.80;59.70;;;;;;5052492;28;20379;-54
2021/09/09 00:35:23;;;;;;;7.55;5.15;;;23.80;59.70;;;;;;5052594;28;20039;-54
2021/09/09 00:37:48;;;;;;;6.30;5.28;;;23.80;59.70;;;;;;5052666;28;20071;-55
2021/09/09 00:40:14;;;;;;;6.28;5.40;;;23.80;59.70;;;;;;5052765;28;20094;-55
2021/09/09 00:42:41;;;;;;;6.95;5.60;;;23.80;59.70;;;;;;5050733;28;20040;-52
2021/09/09 00:45:07;;;;;;;6.68;5.60;;;23.80;59.60;;;;;;5052169;28;20087;-52
2021/09/09 00:47:33;;;;;;;7.63;5.43;;;23.80;59.70;;;;;;5050244;28;20033;-53
2021/09/09 00:49:58;;;;;;;7.88;5.45;;;23.80;59.70;;;;;;5052600;28;20055;-54
2021/09/09 00:52:24;;;;;;;6.10;5.18;;;23.80;59.70;;;;;;5053064;28;20137;-54
2021/09/09 00:54:50;;;;;;;6.63;5.53;;;23.80;59.70;;;;;;5051939;28;20466;-52
2021/09/09 00:57:17;;;;;;;5.68;4.93;;;23.80;59.70;;;;;;5052590;28;20375;-51
2021/09/09 00:59:44;;;;;;;7.07;5.30;;;23.80;59.80;;;;;;5052835;28;20029;-55
2021/09/09 01:02:11;;;;;;;6.40;5.05;;;23.80;59.70;;;;;;5073320;28;20036;-52
2021/09/09 01:04:37;;;;;;;6.82;4.93;;;23.80;59.70;;;;;;5072232;28;20036;-56
2021/09/09 01:07:03;;;;;;;6.90;4.93;;;23.80;59.70;;;;;;5072119;28;20027;-55
2021/09/09 01:09:29;;;;;;;6.60;5.60;;;23.80;59.70;;;;;;5051294;28;20083;-56
2021/09/09 01:11:54;;;;;;;6.70;5.50;;;23.70;59.70;;;;;;5053297;28;20029;-55
2021/09/09 01:14:20;;;;;;;7.05;5.45;;;23.70;59.70;;;;;;5051555;28;20117;-56
2021/09/09 01:16:47;;;;;;;5.90;4.65;;;23.70;59.70;;;;;;5050900;28;20200;-55
2021/09/09 01:19:14;;;;;;;9.45;5.43;;;23.70;59.70;;;;;;5051829;28;20029;-54
2021/09/09 01:21:40;;;;;;;6.70;5.30;;;23.70;59.60;;;;;;5051549;28;20029;-55
2021/09/09 01:24:16;;;;;;;5.70;4.78;;;23.80;59.70;;;;;;5052146;28;20058;-55
2021/09/09 01:26:47;;;;;;;6.55;5.18;;;23.70;59.60;;;;;;5050923;28;20487;-54
2021/09/09 01:29:13;;;;;;;6.72;5.00;;;23.70;59.60;;;;;;5052058;28;20055;-55
2021/09/09 01:31:39;;;;;;;5.75;4.93;;;23.70;59.70;;;;;;5068330;28;20462;-55
2021/09/09 01:34:06;;;;;;;6.05;4.70;;;23.70;59.60;;;;;;5070448;28;20447;-56
2021/09/09 01:36:33;;;;;;;5.97;5.07;;;23.70;59.60;;;;;;5053234;28;20044;-56
2021/09/09 01:38:59;;;;;;;5.60;5.05;;;23.70;59.60;;;;;;5051136;28;20067;-55
2021/09/09 01:41:24;;;;;;;7.97;5.30;;;23.70;59.60;;;;;;5056547;28;20053;-53
2021/09/09 01:43:50;;;;;;;6.22;4.70;;;23.70;59.60;;;;;;5051594;28;20022;-56
2021/09/09 01:46:15;;;;;;;5.85;4.80;;;23.70;59.60;;;;;;5051488;28;20025;-52
2021/09/09 01:48:41;;;;;;;5.70;4.70;;;23.70;59.60;;;;;;5049901;28;20393;-54
2021/09/09 01:51:07;;;;;;;6.47;4.75;;;23.70;59.60;;;;;;5051661;28;20532;-53
2021/09/09 01:53:33;;;;;;;7.05;5.18;;;23.70;59.60;;;;;;5050788;28;20103;-54
2021/09/09 01:55:58;;;;;;;6.68;5.38;;;23.60;59.60;;;;;;5051404;28;20451;-54
2021/09/09 01:58:24;;;;;;;5.35;4.50;;;23.70;59.60;;;;;;5051591;28;20469;-53
2021/09/09 02:00:50;;;;;;;5.55;4.72;;;23.70;59.60;;;;;;5050884;28;20049;-54
2021/09/09 02:03:15;;;;;;;6.30;4.70;;;23.70;59.60;;;;;;5050250;28;20111;-54
2021/09/09 02:05:41;;;;;;;6.80;5.13;;;23.70;59.60;;;;;;5049913;28;20032;-53
2021/09/09 02:08:07;;;;;;;7.25;5.10;;;23.70;59.60;;;;;;5051354;28;20036;-53
2021/09/09 02:10:32;;;;;;;6.82;5.05;;;23.70;59.60;;;;;;5057577;28;20056;-55
2021/09/09 02:12:59;;;;;;;6.35;4.57;;;23.70;59.60;;;;;;5051506;28;20390;-55
2021/09/09 02:15:24;;;;;;;6.60;5.18;;;23.70;59.60;;;;;;5050852;28;20033;-55
2021/09/09 02:17:50;;;;;;;7.18;5.15;;;23.70;59.60;;;;;;5050484;28;20033;-51
2021/09/09 02:20:16;;;;;;;6.10;4.85;;;23.70;59.60;;;;;;5052517;28;20483;-52
2021/09/09 02:22:42;;;;;;;6.50;5.13;;;23.70;59.50;;;;;;5070731;28;20370;-50
2021/09/09 02:25:08;;;;;;;6.22;5.00;;;23.70;59.50;;;;;;5071472;28;20437;-52
2021/09/09 02:27:34;;;;;;;5.93;4.40;;;23.70;59.50;;;;;;5052597;28;20037;-53
2021/09/09 02:30:00;;;;;;;5.60;4.70;;;23.70;59.50;;;;;;5050463;28;20473;-53
2021/09/09 02:32:26;;;;;;;6.55;4.97;;;23.70;59.50;;;;;;5050400;28;20041;-54
2021/09/09 02:34:51;;;;;;;6.28;4.60;;;23.70;59.50;;;;;;5050173;28;20490;-50
2021/09/09 02:37:17;;;;;;;6.60;4.80;;;23.70;59.50;;;;;;5050947;28;20530;-51
2021/09/09 02:39:46;;;;;;;5.05;4.55;;;23.70;59.50;;;;;;5070671;28;20024;-52
2021/09/09 02:42:13;;;;;;;5.05;4.22;;;23.70;59.40;;;;;;5071286;28;20028;-50
2021/09/09 02:44:38;;;;;;;5.45;4.95;;;23.70;59.40;;;;;;5053861;28;20029;-53
2021/09/09 02:47:04;;;;;;;7.43;4.75;;;23.70;59.40;;;;;;5065279;28;20028;-51
2021/09/09 02:49:30;;;;;;;6.55;4.72;;;23.70;59.40;;;;;;5070509;28;20512;-55
2021/09/09 02:51:55;;;;;;;5.25;4.60;;;23.70;59.40;;;;;;5071678;28;20447;-54
2021/09/09 02:54:21;;;;;;;7.95;4.53;;;23.70;59.30;;;;;;5058006;28;20069;-54
2021/09/09 02:56:46;;;;;;;6.57;5.00;;;23.70;59.40;;;;;;5049685;28;20077;-54
2021/09/09 02:59:12;;;;;;;6.65;5.38;;;23.70;59.30;;;;;;5050485;28;20021;-55
2021/09/09 03:01:38;;;;;;;6.78;5.30;;;23.60;59.30;;;;;;5050032;28;20049;-54
2021/09/09 03:04:05;;;;;;;6.40;5.20;;;23.60;59.30;;;;;;5050729;28;20040;-54
2021/09/09 03:06:30;;;;;;;6.97;5.05;;;23.70;59.30;;;;;;5053763;28;20387;-55
2021/09/09 03:08:56;;;;;;;8.18;4.65;;;23.60;59.30;;;;;;5054803;28;20021;-55
2021/09/09 03:11:22;;;;;;;5.97;5.07;;;23.60;59.30;;;;;;5054196;28;20041;-54
2021/09/09 03:13:47;;;;;;;5.10;4.10;;;23.60;59.30;;;;;;5061846;28;20024;-53
2021/09/09 03:16:13;;;;;;;6.43;5.15;;;23.60;59.20;;;;;;5067418;28;20025;-53
2021/09/09 03:18:39;;;;;;;8.55;5.07;;;23.60;59.30;;;;;;5053385;28;20135;-54
2021/09/09 03:21:04;;;;;;;5.53;4.80;;;23.70;59.30;;;;;;5054315;28;20454;-52
2021/09/09 03:23:30;;;;;;;6.85;4.70;;;23.60;59.20;;;;;;5053555;28;20497;-56
2021/09/09 03:25:56;;;;;;;6.68;5.07;;;23.60;59.20;;;;;;5054349;28;20064;-56
2021/09/09 03:28:21;;;;;;;5.38;4.50;;;23.70;59.30;;;;;;5053812;28;20024;-54
2021/09/09 03:30:47;;;;;;;6.32;4.70;;;23.70;59.20;;;;;;5052999;28;20632;-52
2021/09/09 03:33:13;;;;;;;5.38;4.60;;;23.60;59.20;;;;;;5052008;28;20032;-52
2021/09/09 03:35:38;;;;;;;6.30;4.50;;;23.60;59.20;;;;;;5052563;28;20418;-50
2021/09/09 03:38:04;;;;;;;6.78;4.95;;;23.60;59.10;;;;;;5053915;28;20029;-54
2021/09/09 03:40:30;;;;;;;6.78;4.22;;;23.60;59.20;;;;;;5053537;28;20029;-54
2021/09/09 03:42:55;;;;;;;6.40;4.88;;;23.60;59.20;;;;;;5055662;28;20024;-54
2021/09/09 03:45:21;;;;;;;4.45;3.97;;;23.60;59.20;;;;;;5060801;28;20037;-54
2021/09/09 03:47:47;;;;;;;6.25;4.50;;;23.60;59.10;;;;;;5052918;28;20047;-54
2021/09/09 03:50:13;;;;;;;7.55;4.32;;;23.60;59.10;;;;;;5053734;28;20492;-55
2021/09/09 03:52:40;;;;;;;7.43;4.82;;;23.60;59.10;;;;;;5053103;28;20347;-52
2021/09/09 03:55:06;;;;;;;6.63;4.57;;;23.60;59.10;;;;;;5053105;28;20394;-54
2021/09/09 03:57:32;;;;;;;6.22;4.90;;;23.60;59.10;;;;;;5052278;28;20039;-54
2021/09/09 03:59:57;;;;;;;4.68;4.18;;;23.60;59.10;;;;;;5053209;28;20045;-52
2021/09/09 04:02:23;;;;;;;6.03;4.13;;;23.60;59.10;;;;;;5053350;28;20040;-52
2021/09/09 04:04:49;;;;;;;5.75;4.38;;;23.60;59.10;;;;;;5052414;28;20025;-53
2021/09/09 04:07:14;;;;;;;6.72;4.55;;;23.60;59.10;;;;;;5053032;28;20036;-52
2021/09/09 04:09:40;;;;;;;6.10;5.00;;;23.60;59.10;;;;;;5052309;28;20112;-53
2021/09/09 04:12:06;;;;;;;8.82;5.43;;;23.60;59.10;;;;;;5064087;28;20021;-49
2021/09/09 04:14:32;;;;;;;5.50;4.57;;;23.60;59.10;;;;;;5072242;28;20036;-54
2021/09/09 04:16:58;;;;;;;7.25;4.80;;;23.60;59.10;;;;;;5072229;28;20099;-50
2021/09/09 04:19:24;;;;;;;8.13;4.72;;;23.60;59.10;;;;;;5062130;28;20116;-50
2021/09/09 04:21:51;;;;;;;7.47;5.70;;;23.60;59.00;;;;;;5051923;28;20727;-50
2021/09/09 04:24:17;;;;;;;6.07;4.85;;;23.60;59.00;;;;;;5052751;28;20063;-49
2021/09/09 04:26:43;;;;;;;5.97;4.90;;;23.60;59.00;;;;;;5052009;28;20432;-54
2021/09/09 04:29:09;;;;;;;6.03;4.80;;;23.60;59.00;;;;;;5052300;28;20025;-52
2021/09/09 04:31:35;;;;;;;6.50;4.90;;;23.60;59.00;;;;;;5051659;28;20394;-49
2021/09/09 04:34:01;;;;;;;5.20;4.60;;;23.60;59.00;;;;;;5052952;28;20459;-50
2021/09/09 04:36:27;;;;;;;6.18;5.03;;;23.60;59.00;;;;;;5052619;28;20028;-51
2021/09/09 04:38:52;;;;;;;6.55;5.30;;;23.60;59.00;;;;;;5059959;28;20036;-55
2021/09/09 04:41:18;;;;;;;6.60;5.20;;;23.60;59.10;;;;;;5072610;28;20028;-53
2021/09/09 04:43:44;;;;;;;6.18;4.88;;;23.60;59.00;;;;;;5070424;28;20031;-51
2021/09/09 04:46:10;;;;;;;5.85;5.10;;;23.60;59.00;;;;;;5052263;28;20025;-53
2021/09/09 04:48:36;;;;;;;5.93;4.45;;;23.60;59.00;;;;;;5050421;28;20033;-53
2021/09/09 04:51:02;;;;;;;6.25;4.75;;;23.60;59.00;;;;;;5052174;28;20398;-50
2021/09/09 04:53:28;;;;;;;5.53;4.90;;;23.60;59.00;;;;;;5052388;28;20035;-51
2021/09/09 04:55:54;;;;;;;5.93;4.70;;;23.60;58.90;;;;;;5051048;28;20048;-53
2021/09/09 04:58:20;;;;;;;6.95;4.80;;;23.60;59.00;;;;;;5052246;28;20356;-51
2021/09/09 05:00:46;;;;;;;6.28;4.68;;;23.60;59.00;;;;;;5051321;28;20053;-54
2021/09/09 05:03:11;;;;;;;6.32;5.07;;;23.60;59.00;;;;;;5056988;28;20024;-54
2021/09/09 05:05:37;;;;;;;5.85;4.88;;;23.60;59.00;;;;;;5070781;28;20029;-53
2021/09/09 05:08:03;;;;;;;6.32;5.00;;;23.60;58.90;;;;;;5051971;28;20036;-51
2021/09/09 05:10:28;;;;;;;5.28;4.38;;;23.60;58.90;;;;;;5051888;28;20480;-51
2021/09/09 05:12:54;;;;;;;6.80;5.00;;;23.60;58.90;;;;;;5051108;28;20040;-54
2021/09/09 05:15:20;;;;;;;7.22;5.88;;;23.60;58.90;;;;;;5059337;28;20387;-53
2021/09/09 05:17:45;;;;;;;7.10;5.50;;;23.60;58.90;;;;;;5050945;28;20052;-54
2021/09/09 05:20:11;;;;;;;6.00;5.07;;;23.60;58.90;;;;;;5052264;28;20386;-56
2021/09/09 05:22:37;;;;;;;6.95;5.18;;;23.60;58.90;;;;;;5051395;28;20021;-54
2021/09/09 05:25:03;;;;;;;7.28;4.45;;;23.60;58.90;;;;;;5051756;28;20489;-53
2021/09/09 05:27:29;;;;;;;6.15;4.88;;;23.60;59.00;;;;;;5051311;28;20036;-53
2021/09/09 05:29:55;;;;;;;5.90;4.93;;;23.60;58.90;;;;;;5051605;28;20142;-55
2021/09/09 05:32:21;;;;;;;6.57;5.18;;;23.60;58.90;;;;;;5051847;28;20031;-51
2021/09/09 05:34:46;;;;;;;7.30;5.28;;;23.60;59.60;;;;;;5054989;28;20402;-52
2021/09/09 05:37:12;;;;;;;6.45;5.20;;;23.60;58.90;;;;;;5071742;28;20078;-52
2021/09/09 05:39:38;;;;;;;6.85;5.10;;;23.60;59.00;;;;;;5071057;28;20029;-52
2021/09/09 05:42:04;;;;;;;8.68;5.50;;;23.60;58.90;;;;;;5060470;28;20063;-53
2021/09/09 05:44:29;;;;;;;6.82;5.28;;;23.60;58.90;;;;;;5046196;28;20125;-55
2021/09/09 05:46:55;;;;;;;7.38;5.50;;;23.60;58.90;;;;;;5054342;28;20094;-54
2021/09/09 05:49:21;;;;;;;5.93;4.93;;;23.60;58.90;;;;;;5044448;28;20394;-56
2021/09/09 05:51:47;;;;;;;5.57;4.18;;;23.60;59.60;;;;;;5050232;28;20021;-52
2021/09/09 05:54:12;;;;;;;6.05;4.65;;;23.60;59.00;;;;;;5054092;28;20112;-51
2021/09/09 05:56:38;;;;;;;6.40;5.55;;;23.60;59.00;;;;;;5069839;28;20082;-56
2021/09/09 05:59:04;;;;;;;7.07;5.10;;;23.70;59.60;;;;;;5062062;28;20343;-53
2021/09/09 06:01:30;;;;;;;6.35;4.70;;;23.70;59.00;;;;;;5051124;28;20510;-53
2021/09/09 06:03:57;;;;;;;6.57;4.72;;;23.80;59.40;;;;;;5050545;28;20032;-56
2021/09/09 06:06:25;;;;;;;6.63;4.95;;;23.80;59.50;;;;;;5051401;28;20033;-56
2021/09/09 06:08:51;;;;;;;13.63;4.75;;;23.80;59.60;;;;;;5049229;28;20110;-56
2021/09/09 06:11:16;;;;;;;10.38;4.65;;;23.80;60.00;;;;;;5050919;28;20057;-58
2021/09/09 06:13:42;;;;;;;8.50;4.90;;;23.80;60.10;;;;;;5049778;28;20036;-56
2021/09/09 06:16:08;;;;;;;12.38;4.88;;;23.80;60.40;;;;;;5050649;28;20029;-56
2021/09/09 06:18:34;;;;;;;8.32;4.70;;;23.80;60.40;;;;;;5050220;28;20485;-58
2021/09/09 06:21:00;;;;;;;6.03;3.90;;;23.80;60.40;;;;;;5050666;28;20056;-57
2021/09/09 06:23:26;;;;;;;10.15;4.88;;;23.80;60.50;;;;;;5053554;28;20060;-57
2021/09/09 06:25:52;;;;;;;5.57;4.60;;;23.80;60.50;;;;;;5050111;28;20385;-58
2021/09/09 06:28:17;;;;;;;13.00;5.13;;;23.80;60.50;;;;;;5050479;28;20537;-57
2021/09/09 06:30:43;;;;;;;8.77;4.90;;;23.90;60.40;;;;;;5049738;28;20540;-58
2021/09/09 06:33:09;;;;;;;10.52;4.50;;;23.80;60.40;;;;;;5050380;28;20112;-57
2021/09/09 06:35:34;;;;;;;9.30;4.35;;;23.80;60.40;;;;;;5050471;28;20033;-57
2021/09/09 06:38:00;;;;;;;12.95;5.68;;;23.80;60.40;;;;;;5049859;28;20033;-57
2021/09/09 06:40:26;;;;;;;7.97;4.20;;;23.80;60.40;;;;;;5052711;28;20029;-57
2021/09/09 06:42:51;;;;;;;7.60;4.55;;;23.80;60.40;;;;;;5053479;28;20106;-57
2021/09/09 06:45:17;;;;;;;9.23;5.00;;;23.80;61.00;;;;;;5052813;28;20463;-58
2021/09/09 06:47:43;;;;;;;6.78;3.75;;;23.80;60.50;;;;;;5056948;28;20025;-56
2021/09/09 06:50:08;;;;;;;8.40;5.30;;;23.80;60.70;;;;;;5054618;28;20029;-57
2021/09/09 06:52:34;;;;;;;9.65;4.70;;;23.80;60.50;;;;;;5055448;28;20025;-57
2021/09/09 06:55:00;;;;;;;6.22;4.45;;;23.80;60.50;;;;;;5066252;28;20036;-57
2021/09/09 06:57:26;;;;;;;5.93;4.13;;;23.80;60.40;;;;;;5053793;28;20470;-58
2021/09/09 06:59:51;;;;;;;8.57;4.35;;;23.80;60.40;;;;;;5053041;28;20021;-58
2021/09/09 07:02:17;;;;;;;4.95;4.25;;;23.80;60.40;;;;;;5053695;28;20036;-57
2021/09/09 07:04:43;;;;;;;5.45;4.30;;;23.80;60.50;;;;;;5053391;28;20041;-57
2021/09/09 07:07:08;;;;;;;6.68;4.90;;;23.80;60.50;;;;;;5054258;28;20029;-57
2021/09/09 07:09:35;;;;;;;7.65;4.35;;;23.80;60.50;;;;;;5052882;28;20045;-57
2021/09/09 07:12:01;;;;;;;8.65;4.40;;;23.80;60.50;;;;;;5053807;28;20106;-57
2021/09/09 07:14:26;;;;;;;5.32;4.20;;;23.80;60.60;;;;;;5054132;28;20367;-57
2021/09/09 07:16:52;;;;;;;7.30;4.25;;;23.80;60.50;;;;;;5053151;28;20033;-57
2021/09/09 07:19:18;;;;;;;8.63;4.93;;;23.80;60.60;;;;;;5053967;28;20017;-57
2021/09/09 07:21:45;;;;;;;6.55;4.30;;;23.80;60.50;;;;;;5053014;28;20086;-57
2021/09/09 07:24:11;;;;;;;6.03;4.25;;;23.70;60.50;;;;;;5050586;28;20132;-57
2021/09/09 07:26:36;;;;;;;7.50;5.13;;;23.70;60.60;;;;;;5053643;28;20100;-57
2021/09/09 07:29:02;;;;;;;8.43;4.15;;;23.70;60.50;;;;;;5053142;28;20025;-57
2021/09/09 07:31:28;;;;;;;6.38;4.68;;;23.70;60.60;;;;;;5054164;28;20025;-57
2021/09/09 07:33:53;;;;;;;7.80;4.55;;;23.70;60.60;;;;;;5052642;28;20025;-57
2021/09/09 07:36:19;;;;;;;6.68;4.53;;;23.70;60.60;;;;;;5053573;28;20036;-58
2021/09/09 07:38:45;;;;;;;7.70;4.80;;;23.70;60.60;;;;;;5052416;28;20025;-57
2021/09/09 07:41:10;;;;;;;6.03;4.45;;;23.70;60.60;;;;;;5053519;28;20146;-57
2021/09/09 07:43:36;;;;;;;7.60;5.05;;;23.70;60.60;;;;;;5053105;28;20037;-57
2021/09/09 07:46:01;;;;;;;6.88;5.03;;;23.70;60.50;;;;;;5052608;28;20043;-58
2021/09/09 07:48:27;;;;;;;6.28;4.75;;;23.70;60.60;;;;;;5052690;28;20032;-57
2021/09/09 07:50:53;;;;;;;4.82;4.30;;;23.70;60.60;;;;;;5052471;28;20382;-57
2021/09/09 07:53:18;;;;;;;7.75;4.72;;;23.70;60.70;;;;;;5057809;28;20021;-57
2021/09/09 07:55:44;;;;;;;7.13;4.40;;;23.70;60.70;;;;;;5051123;28;20037;-58
2021/09/09 07:58:10;;;;;;;6.90;4.72;;;23.70;60.70;;;;;;5052959;28;20463;-58
2021/09/09 08:00:36;;;;;;;5.30;4.18;;;23.70;60.70;;;;;;5052075;28;20056;-57
2021/09/09 08:03:01;;;;;;;5.82;4.57;;;23.70;60.70;;;;;;5052961;28;20025;-57
2021/09/09 08:05:27;;;;;;;9.63;5.45;;;23.70;60.60;;;;;;5053201;28;20036;-57
2021/09/09 08:07:52;;;;;;;6.65;4.50;;;23.70;60.70;;;;;;5052189;28;20374;-57
2021/09/09 08:10:18;;;;;;;5.40;4.30;;;23.70;60.50;;;;;;5052908;28;20135;-58
2021/09/09 08:12:46;;;;;;;8.35;4.45;;;23.80;60.60;;;;;;5051995;28;20027;-57
2021/09/09 08:15:13;;;;;;;6.82;4.93;;;23.80;60.60;;;;;;5050779;28;20033;-57
2021/09/09 08:17:40;;;;;;;7.88;4.60;;;23.80;60.50;;;;;;5052667;28;20029;-57
2021/09/09 08:20:07;;;;;;;7.93;5.28;;;23.70;60.50;;;;;;5052375;28;20039;-58
2021/09/09 08:22:33;;;;;;;5.07;4.20;;;23.70;60.50;;;;;;5053240;28;20025;-57
2021/09/09 08:24:58;;;;;;;5.55;4.35;;;23.80;60.40;;;;;;5053153;28;20024;-57
2021/09/09 08:27:24;;;;;;;5.63;4.45;;;23.80;60.40;;;;;;5052130;28;20450;-57
2021/09/09 08:29:49;;;;;;;6.57;4.40;;;23.80;60.50;;;;;;5051561;28;20520;-57
2021/09/09 08:32:15;;;;;;;5.80;4.50;;;23.80;60.30;;;;;;5052958;28;20410;-57
2021/09/09 08:34:41;;;;;;;6.75;4.35;;;23.80;60.20;;;;;;5051974;28;20378;-57
2021/09/09 08:37:06;;;;;;;5.28;4.40;;;23.80;60.20;;;;;;5052389;28;20033;-57
2021/09/09 08:39:32;;;;;;;5.93;4.47;;;23.80;60.20;;;;;;5052046;28;20466;-58
2021/09/09 08:41:58;;;;;;;6.90;4.40;;;23.80;60.20;;;;;;5051489;28;20210;-58
2021/09/09 08:44:24;;;;;;;5.55;4.18;;;23.80;60.10;;;;;;5051847;28;20048;-58
2021/09/09 08:46:51;;;;;;;6.40;4.55;;;23.80;60.00;;;;;;5051115;28;20028;-58
2021/09/09 08:49:24;;;;;;;6.03;4.35;;;23.80;60.10;;;;;;5052378;28;20037;-58
2021/09/09 08:51:54;;;;;;;6.10;4.28;;;23.80;60.10;;;;;;5051505;28;20025;-58
2021/09/09 08:54:20;;;;;;;6.07;4.10;;;23.80;60.00;;;;;;5056982;28;20032;-57
2021/09/09 08:56:47;;;;;;;5.72;4.30;;;23.80;60.00;;;;;;5050393;28;20378;-57
2021/09/09 08:59:13;;;;;;;4.75;4.03;;;23.80;59.90;;;;;;5051954;28;20087;-58
2021/09/09 09:02:02;;;;;;;4.78;4.18;;;23.80;60.00;;;;;;5050574;28;20053;-57
2021/09/09 09:04:28;;;;;;;5.22;4.45;;;23.80;60.00;;;;;;5052342;28;20094;-57
2021/09/09 09:06:54;;;;;;;6.80;4.65;;;23.80;59.90;;;;;;5049220;28;20032;-58
2021/09/09 09:09:24;;;;;;;6.22;4.15;;;23.80;59.90;;;;;;5052955;28;20021;-57
2021/09/09 09:11:50;;;;;;;4.97;4.10;;;23.80;59.90;;;;;;5051725;28;20060;-56
2021/09/09 09:14:21;;;;;;;4.68;3.92;;;23.90;59.80;;;;;;5051711;28;20028;-59
2021/09/09 09:17:00;;;;;;;5.95;4.20;;;23.90;60.20;;;;;;5044198;28;20102;-57
2021/09/09 09:19:44;;;;;;;5.82;4.55;;;23.90;60.10;;;;;;5052839;28;20032;-56
2021/09/09 09:22:12;;;;;;;6.68;5.53;;;23.90;60.00;;;;;;5051525;28;20053;-53
2021/09/09 09:24:51;;;;;;;5.70;3.88;;;23.90;60.00;;;;;;5069770;28;20036;-54
2021/09/09 09:27:21;;;;;;;5.25;4.30;;;24.00;60.30;;;;;;5071890;28;20055;-58
2021/09/09 09:30:09;;;;;;;5.63;4.72;;;24.00;60.40;;;;;;5070982;28;20036;-57
2021/09/09 09:32:35;;;;;;;6.20;4.07;;;24.00;60.30;;;;;;5060380;28;20041;-57
2021/09/09 09:35:18;;;;;;;5.13;4.07;;;24.00;60.30;;;;;;5050793;28;20093;-57
2021/09/09 09:37:57;;;;;;;5.82;4.47;;;24.00;60.20;;;;;;5050546;28;20041;-57
2021/09/09 09:40:31;;;;;;;5.78;4.50;;;24.00;60.10;;;;;;5051753;28;20029;-57
2021/09/09 09:42:58;;;;;;;7.70;4.55;;;24.00;60.00;;;;;;5050828;28;20033;-57
2021/09/09 09:45:24;;;;;;;6.43;5.03;;;24.00;60.00;;;;;;5051508;28;20047;-55
2021/09/09 09:47:50;;;;;;;7.80;5.00;;;24.00;60.20;;;;;;5050491;28;20100;-57
2021/09/09 09:50:22;;;;;;;6.35;4.20;;;24.00;60.00;;;;;;5051014;28;20036;-52
2021/09/09 09:52:49;;;;;;;8.40;4.50;;;24.10;60.20;;;;;;5052662;28;20390;-57
2021/09/09 09:55:15;;;;;;;6.60;4.85;;;24.10;60.90;;;;;;5055001;28;20025;-57
2021/09/09 09:57:55;;;;;;;9.95;4.38;;;24.10;62.50;;;;;;5050543;28;20658;-56
2021/09/09 10:00:21;;;;;;;7.35;5.10;;;24.20;64.10;;;;;;5051419;28;20045;-57
2021/09/09 10:02:48;;;;;;;6.68;4.45;;;24.20;66.40;;;;;;5050231;28;20025;-56
2021/09/09 10:05:14;;;;;;;6.47;3.90;;;24.20;64.60;;;;;;5051238;28;20064;-57
2021/09/09 10:07:40;;;;;;;6.75;4.45;;;24.20;63.80;;;;;;5047767;28;20021;-57
2021/09/09 10:10:07;;;;;;;7.43;4.60;;;24.20;63.70;;;;;;5051190;28;20031;-57
2021/09/09 10:12:33;;;;;;;8.82;4.57;;;24.20;63.60;;;;;;5051109;28;20033;-56
2021/09/09 10:15:01;;;;;;;4.47;3.83;;;24.20;63.50;;;;;;5053598;28;20029;-52
2021/09/09 10:17:28;;;;;;;5.00;4.35;;;24.20;63.40;;;;;;5054974;28;20037;-57
2021/09/09 10:19:54;;;;;;;6.07;4.28;;;24.20;63.20;;;;;;5054100;28;20115;-57
2021/09/09 10:22:21;;;;;;;8.35;4.40;;;24.20;63.20;;;;;;5054870;28;20047;-58
2021/09/09 10:25:03;;;;;;;6.68;4.05;;;24.20;62.80;;;;;;5056345;28;20105;-55
2021/09/09 10:27:34;;;;;;;8.30;4.38;;;24.20;62.90;;;;;;5054968;28;20474;-57
2021/09/09 10:30:05;;;;;;;7.95;4.32;;;24.20;62.50;;;;;;5053985;28;20037;-57
2021/09/09 10:32:34;;;;;;;6.13;4.60;;;24.20;62.20;;;;;;5054576;28;20037;-56
2021/09/09 10:35:30;;;;;;;5.65;4.50;;;24.20;62.10;;;;;;5053737;28;20532;-56
2021/09/09 10:38:18;;;;;;;7.10;3.90;;;24.20;61.80;;;;;;5040006;28;20040;-50
2021/09/09 10:40:45;;;;;;;4.80;4.25;;;24.20;61.60;;;;;;5054408;28;20373;-55
2021/09/09 10:43:34;;;;;;;5.15;4.38;;;24.20;61.60;;;;;;5054928;28;20029;-52
2021/09/09 10:46:10;;;;;;;5.75;4.35;;;24.20;61.30;;;;;;5054261;28;20032;-54
2021/09/09 10:48:36;;;;;;;5.40;4.32;;;24.20;61.10;;;;;;5054172;28;20056;-53
2021/09/09 10:51:04;;;;;;;5.28;4.13;;;24.20;61.00;;;;;;5053714;28;20040;-48
2021/09/09 10:53:35;;;;;;;6.88;4.30;;;24.20;61.10;;;;;;5061093;28;20489;-53
2021/09/09 10:56:32;;;;;;;6.35;3.85;;;24.20;61.20;;;;;;5052270;28;20429;-52
2021/09/09 10:59:12;;;;;;;8.20;4.20;;;24.20;61.80;;;;;;5052962;28;20391;-51
2021/09/09 11:01:43;;;;;;;7.22;4.43;;;24.20;61.50;;;;;;5054158;28;20052;-51
2021/09/09 11:04:24;;;;;;;4.83;4.00;;;24.20;61.30;;;;;;5053426;28;20029;-53
2021/09/09 11:06:50;;;;;;;7.03;4.00;;;24.20;61.10;;;;;;5053180;28;20344;-50
2021/09/09 11:09:16;;;;;;;5.90;3.83;;;24.20;60.90;;;;;;5053225;28;20116;-49
2021/09/09 11:11:46;;;;;;;7.63;3.92;;;24.20;60.90;;;;;;5054257;28;20032;-49
2021/09/09 11:14:13;;;;;;;5.28;4.00;;;24.30;60.80;;;;;;5053928;28;20037;-50
2021/09/09 11:16:39;;;;;;;5.55;4.13;;;24.20;60.60;;;;;;5054039;28;20037;-50
2021/09/09 11:19:07;;;;;;;4.88;3.60;;;24.20;60.50;;;;;;5053402;28;20024;-51
2021/09/09 11:21:36;;;;;;;4.68;3.70;;;24.20;60.30;;;;;;5053647;28;20378;-52
2021/09/09 11:24:13;;;;;;;6.22;3.95;;;24.20;60.20;;;;;;5057497;28;20041;-49
2021/09/09 11:26:41;;;;;;;4.43;3.80;;;24.20;60.10;;;;;;5047207;28;20032;-50
2021/09/09 11:29:07;;;;;;;5.95;3.88;;;24.20;60.10;;;;;;5053016;28;20021;-50
2021/09/09 11:31:42;;;;;;;5.00;3.85;;;24.20;60.00;;;;;;5053166;28;20028;-49
2021/09/09 11:34:08;;;;;;;7.10;4.75;;;24.20;60.00;;;;;;5052239;28;20031;-53
2021/09/09 11:36:36;;;;;;;5.03;4.00;;;24.30;59.90;;;;;;5053258;28;20381;-51
2021/09/09 11:39:06;;;;;;;5.97;3.83;;;24.20;59.90;;;;;;5051817;28;20474;-51
2021/09/09 11:41:33;;;;;;;4.68;3.70;;;24.20;59.80;;;;;;5052660;28;20116;-50
2021/09/09 11:44:01;;;;;;;5.65;3.88;;;24.20;59.80;;;;;;5052828;28;20025;-52
2021/09/09 11:46:38;;;;;;;4.63;3.85;;;24.20;59.80;;;;;;5053216;28;20033;-49
2021/09/09 11:49:09;;;;;;;4.75;3.75;;;24.20;59.70;;;;;;5052340;28;20029;-52
2021/09/09 11:51:39;;;;;;;5.88;3.58;;;24.30;59.60;;;;;;5053638;28;20017;-51
2021/09/09 11:54:25;;;;;;;8.10;3.80;;;24.20;59.60;;;;;;5058577;28;20025;-53
2021/09/09 11:57:08;;;;;;;5.00;3.63;;;24.20;59.40;;;;;;5052237;28;20032;-54
2021/09/09 11:59:36;;;;;;;6.35;4.10;;;24.30;59.50;;;;;;5052222;28;20037;-51
2021/09/09 12:02:10;;;;;;;4.65;3.67;;;24.30;59.40;;;;;;5050885;28;20033;-50
2021/09/09 12:04:39;;;;;;;5.35;3.72;;;24.30;59.40;;;;;;5035977;28;20029;-52
2021/09/09 12:07:07;;;;;;;6.03;3.90;;;24.30;59.50;;;;;;5032969;28;20087;-53
2021/09/09 12:09:37;;;;;;;6.70;3.67;;;24.30;59.30;;;;;;5032682;28;20044;-50
2021/09/09 12:12:04;;;;;;;4.85;3.50;;;24.30;59.30;;;;;;5049292;28;20032;-53
2021/09/09 12:14:30;;;;;;;4.85;3.78;;;24.30;59.20;;;;;;5052553;28;20115;-53
2021/09/09 12:17:15;;;;;;;3.97;3.58;;;24.30;59.30;;;;;;5051362;28;20108;-53
2021/09/09 12:20:04;;;;;;;5.28;4.13;;;24.30;59.10;;;;;;5052478;28;20043;-50
2021/09/09 12:22:47;;;;;;;5.45;3.30;;;24.30;59.30;;;;;;5052621;28;20029;-52
2021/09/09 12:25:13;;;;;;;7.25;4.10;;;24.40;59.70;;;;;;5052376;28;20868;-49
2021/09/09 12:27:52;;;;;;;4.70;3.28;;;24.30;59.40;;;;;;5051852;28;20036;-54
2021/09/09 12:30:21;;;;;;;5.78;3.60;;;24.40;59.60;;;;;;5052616;28;20463;-49
2021/09/09 12:32:47;;;;;;;4.70;3.85;;;24.40;59.30;;;;;;5051993;28;20155;-51
2021/09/09 12:35:23;;;;;;;6.43;3.78;;;24.40;59.10;;;;;;5051257;28;20103;-53
2021/09/09 12:38:09;;;;;;;5.32;3.90;;;24.40;58.90;;;;;;5049823;28;20037;-52
2021/09/09 12:40:44;;;;;;;4.15;3.38;;;24.40;59.40;;;;;;5052257;28;20033;-54
2021/09/09 12:43:28;;;;;;;4.15;3.50;;;24.50;58.90;;;;;;5043983;28;20032;-51
2021/09/09 12:45:55;;;;;;;5.78;3.95;;;24.40;59.20;;;;;;5051370;28;20048;-52
2021/09/09 12:48:22;;;;;;;6.05;4.00;;;24.40;59.30;;;;;;5050927;28;20043;-52